Time;durP1;ratioP1;P1;durP2;ratioP2;P2;SDS_P1;SDS_P2;PMS_P1;PMS_P2;Temp;Humidity;BMP_temperature;BMP_pressure;BME280_temperature;BME280_humidity;BME280_pressure;Samples;Min_cycle;Max_cycle;Signal;HPM_P1;HPM_P2
2022/10/21 00:01:25;;;;;;;12.98;8.65;;;;;;;19.67;55.62;100838.03;5087144;28;20048;-38
2022/10/21 00:03:52;;;;;;;14.75;8.73;;;;;;;19.66;55.62;100844.44;5084178;28;20048;-38
2022/10/21 00:06:18;;;;;;;12.13;8.02;;;;;;;19.66;56.58;100855.19;5085354;28;20047;-38
2022/10/21 00:08:45;;;;;;;10.70;7.20;;;;;;;19.66;56.25;100855.19;5068832;28;20036;-38
2022/10/21 00:11:11;;;;;;;12.18;8.10;;;;;;;19.66;55.85;100852.50;5086565;28;20134;-38
2022/10/21 00:13:39;;;;;;;11.45;8.15;;;;;;;19.66;56.25;100854.34;5083782;28;20048;-38
2022/10/21 00:16:05;;;;;;;10.48;7.68;;;;;;;19.66;56.14;100849.81;5087655;28;20048;-38
2022/10/21 00:18:34;;;;;;;11.43;7.88;;;;;;;19.64;56.01;100849.13;5086200;28;20077;-38
2022/10/21 00:21:05;;;;;;;10.65;7.88;;;;;;;19.64;56.45;100853.66;5084768;28;20051;-38
2022/10/21 00:23:31;;;;;;;9.90;7.25;;;;;;;19.63;55.63;100852.81;5083393;28;20047;-38
2022/10/21 00:25:58;;;;;;;12.05;7.55;;;;;;;19.64;56.13;100854.50;5085629;28;20072;-38
2022/10/21 00:28:25;;;;;;;11.45;7.35;;;;;;;19.64;56.34;100850.97;5086996;28;20044;-38
2022/10/21 00:30:53;;;;;;;10.23;7.15;;;;;;;19.62;56.10;100848.47;5087401;28;20085;-38
2022/10/21 00:33:19;;;;;;;12.32;8.20;;;;;;;19.62;56.39;100855.69;5084475;28;20045;-38
2022/10/21 00:35:57;;;;;;;10.07;6.97;;;;;;;19.62;56.40;100850.31;5086071;28;21099;-38
2022/10/21 00:38:24;;;;;;;11.38;7.45;;;;;;;19.62;56.42;100847.63;5083635;28;20044;-38
2022/10/21 00:40:51;;;;;;;10.07;6.72;;;;;;;19.62;55.74;100842.25;5083839;28;20104;-38
2022/10/21 00:43:17;;;;;;;11.07;6.60;;;;;;;19.61;56.46;100841.38;5086942;28;20328;-38
2022/10/21 00:45:45;;;;;;;9.93;7.15;;;;;;;19.61;55.79;100836.00;5086501;28;20044;-38
2022/10/21 00:48:23;;;;;;;13.20;7.15;;;;;;;19.60;55.60;100834.28;5085444;28;20086;-38
2022/10/21 00:50:57;;;;;;;9.52;7.00;;;;;;;19.61;56.24;100836.00;5085836;28;20050;-38
2022/10/21 00:53:24;;;;;;;9.30;6.50;;;;;;;19.61;56.28;100843.19;5084090;28;20051;-38
2022/10/21 00:56:06;;;;;;;12.20;7.45;;;;;;;19.61;55.80;100841.38;5083191;28;20170;-38
2022/10/21 00:58:33;;;;;;;10.13;7.05;;;;;;;19.61;56.27;100824.38;5087499;28;20036;-38
2022/10/21 01:01:02;;;;;;;9.70;7.18;;;;;;;19.62;55.82;100828.78;5083871;28;20040;-38
2022/10/21 01:03:31;;;;;;;13.00;7.15;;;;;;;19.59;56.20;100813.78;5082905;28;20040;-38
2022/10/21 01:06:00;;;;;;;9.77;6.53;;;;;;;19.58;56.02;100812.13;5084910;28;20062;-38
2022/10/21 01:08:28;;;;;;;12.30;6.85;;;;;;;19.60;56.38;100806.56;5084480;28;20056;-38
2022/10/21 01:10:56;;;;;;;12.05;7.07;;;;;;;19.60;55.75;100799.34;5081611;28;20048;-38
2022/10/21 01:13:36;;;;;;;8.73;6.60;;;;;;;19.60;55.70;100791.28;5083584;28;20048;-38
2022/10/21 01:16:24;;;;;;;9.35;6.32;;;;;;;19.60;56.07;100785.06;5088125;28;20139;-38
2022/10/21 01:19:01;;;;;;;8.30;6.15;;;;;;;19.59;55.91;100786.06;5085140;28;20044;-38
2022/10/21 01:21:33;;;;;;;9.43;6.07;;;;;;;19.60;56.14;100777.81;5088159;28;20093;-38
2022/10/21 01:24:08;;;;;;;9.15;6.25;;;;;;;19.60;56.18;100780.50;5084780;28;20040;-38
2022/10/21 01:27:15;;;;;;;8.15;5.70;;;;;;;19.59;56.30;100784.22;5088201;28;20048;-38
2022/10/21 01:30:07;;;;;;;9.05;5.70;;;;;;;19.59;55.69;100783.38;5086715;28;20052;-38
2022/10/21 01:33:01;;;;;;;10.68;6.35;;;;;;;19.59;56.29;100786.06;5084318;28;20051;-38
2022/10/21 01:35:39;;;;;;;9.55;6.45;;;;;;;19.59;56.26;100780.69;5086443;28;20394;-38
2022/10/21 01:38:21;;;;;;;8.32;5.80;;;;;;;19.57;56.02;100770.09;5085884;28;20657;-38
2022/10/21 01:40:58;;;;;;;9.35;5.90;;;;;;;19.58;56.05;100774.47;5081658;28;20056;-38
2022/10/21 01:43:44;;;;;;;8.82;6.03;;;;;;;19.57;55.62;100769.25;5084784;28;20048;-38
2022/10/21 01:46:15;;;;;;;8.90;6.05;;;;;;;19.57;56.23;100778.16;5081078;28;20047;-38
2022/10/21 01:48:48;;;;;;;9.80;6.30;;;;;;;19.57;55.78;100780.84;5082751;28;20048;-38
2022/10/21 01:51:17;;;;;;;8.73;5.68;;;;;;;19.57;56.06;100777.31;5085350;28;20052;-38
2022/10/21 01:53:53;;;;;;;7.85;5.28;;;;;;;19.55;55.67;100774.81;5081771;28;20085;-38
2022/10/21 01:56:20;;;;;;;9.27;6.05;;;;;;;19.56;55.93;100768.41;5085893;28;20051;-38
2022/10/21 01:58:48;;;;;;;9.25;5.93;;;;;;;19.57;56.44;100769.25;5082347;28;20423;-38
2022/10/21 02:01:17;;;;;;;8.95;6.05;;;;;;;19.55;56.09;100766.72;5085040;28;20047;-38
2022/10/21 02:03:48;;;;;;;8.63;5.70;;;;;;;19.55;56.30;100763.22;5084130;28;20055;-38
2022/10/21 02:06:14;;;;;;;9.30;5.72;;;;;;;19.56;55.79;100763.03;5082816;28;20051;-38
2022/10/21 02:08:41;;;;;;;6.93;5.05;;;;;;;19.56;55.85;100768.41;5082450;28;20494;-38
2022/10/21 02:11:11;;;;;;;9.40;5.25;;;;;;;19.56;55.82;100772.94;5087507;28;20340;-38
2022/10/21 02:13:44;;;;;;;7.32;5.25;;;;;;;19.55;55.91;100757.84;5088353;28;20048;-38
2022/10/21 02:16:16;;;;;;;6.97;5.45;;;;;;;19.55;56.29;100755.97;5088366;28;20048;-38
2022/10/21 02:18:43;;;;;;;8.90;5.72;;;;;;;19.56;55.60;100756.81;5084681;28;20063;-38
2022/10/21 02:21:16;;;;;;;8.25;5.35;;;;;;;19.55;55.93;100747.09;5086942;28;20527;-38
2022/10/21 02:23:58;;;;;;;8.95;5.50;;;;;;;19.54;55.81;100734.63;5087152;28;20097;-38
2022/10/21 02:26:26;;;;;;;7.75;5.53;;;;;;;19.55;55.86;100737.16;5087512;28;20075;-38
2022/10/21 02:28:55;;;;;;;7.80;5.47;;;;;;;19.55;56.28;100739.00;5085242;28;20055;-38
2022/10/21 02:31:34;;;;;;;7.75;5.30;;;;;;;19.53;56.06;100725.72;5086856;28;20373;-38
2022/10/21 02:34:20;;;;;;;6.22;4.93;;;;;;;19.53;56.34;100722.19;5086402;28;20048;-38
2022/10/21 02:37:05;;;;;;;8.57;5.45;;;;;;;19.53;55.74;100724.88;5085807;28;20036;-38
2022/10/21 02:39:49;;;;;;;7.93;5.43;;;;;;;19.53;56.21;100731.09;5087258;28;20093;-38
2022/10/21 02:42:21;;;;;;;7.82;5.07;;;;;;;19.53;56.36;100731.09;5086341;28;20055;-38
2022/10/21 02:44:48;;;;;;;8.03;4.73;;;;;;;19.52;55.92;100724.03;5081886;28;20045;-39
2022/10/21 02:47:15;;;;;;;7.38;5.03;;;;;;;19.53;56.10;100723.03;5086324;28;20052;-38
2022/10/21 02:49:45;;;;;;;7.45;5.03;;;;;;;19.52;55.83;100720.53;5086121;28;20116;-38
2022/10/21 02:52:11;;;;;;;6.15;5.07;;;;;;;19.52;56.05;100728.59;5085657;28;20067;-38
2022/10/21 02:54:38;;;;;;;7.70;4.63;;;;;;;19.51;56.42;100727.75;5084046;28;20056;-38
2022/10/21 02:57:04;;;;;;;7.65;4.90;;;;;;;19.51;55.98;100732.28;5086628;28;20359;-38
2022/10/21 02:59:30;;;;;;;7.90;4.68;;;;;;;19.50;56.21;100731.44;5086411;28;20516;-38
2022/10/21 03:01:57;;;;;;;6.93;5.20;;;;;;;19.49;55.74;100722.53;5085061;28;20044;-38
2022/10/21 03:04:23;;;;;;;6.53;4.90;;;;;;;19.49;55.65;100719.00;5084546;28;20044;-38
2022/10/21 03:06:50;;;;;;;6.75;4.50;;;;;;;19.49;56.00;100733.28;5085635;28;20044;-38
2022/10/21 03:09:17;;;;;;;6.53;4.45;;;;;;;19.49;56.46;100727.91;5085536;28;20055;-38
2022/10/21 03:11:43;;;;;;;7.72;4.90;;;;;;;19.48;55.75;100712.78;5087013;28;20043;-38
2022/10/21 03:14:09;;;;;;;7.45;4.68;;;;;;;19.49;55.90;100721.69;5085843;28;20439;-38
2022/10/21 03:16:36;;;;;;;6.22;4.63;;;;;;;19.48;56.02;100718.16;5088882;28;20047;-38
2022/10/21 03:19:03;;;;;;;6.55;4.55;;;;;;;19.48;55.92;100722.69;5088163;28;20047;-38
2022/10/21 03:21:29;;;;;;;6.20;4.53;;;;;;;19.47;55.47;100721.84;5085055;28;20048;-38
2022/10/21 03:23:56;;;;;;;6.43;4.15;;;;;;;19.47;55.94;100724.53;5087362;28;20379;-38
2022/10/21 03:26:22;;;;;;;7.00;4.63;;;;;;;19.47;55.60;100724.53;5085288;28;20055;-38
2022/10/21 03:28:49;;;;;;;5.35;4.03;;;;;;;19.47;55.52;100729.09;5084256;28;20454;-38
2022/10/21 03:31:15;;;;;;;7.70;4.85;;;;;;;19.46;55.64;100738.16;5090539;28;20051;-38
2022/10/21 03:33:42;;;;;;;7.13;4.55;;;;;;;19.47;56.00;100731.78;5087190;28;20068;-38
2022/10/21 03:36:08;;;;;;;7.22;5.05;;;;;;;19.46;55.86;100725.56;5087191;28;20055;-38
2022/10/21 03:38:35;;;;;;;5.50;4.25;;;;;;;19.46;55.71;100730.94;5086074;28;20594;-38
2022/10/21 03:41:01;;;;;;;7.65;4.28;;;;;;;19.46;56.50;100730.09;5086512;28;20061;-38
2022/10/21 03:43:28;;;;;;;5.82;4.53;;;;;;;19.45;55.57;100725.72;5080234;28;20344;-38
2022/10/21 03:45:54;;;;;;;7.07;4.68;;;;;;;19.45;55.52;100723.03;5089770;28;20051;-38
2022/10/21 03:48:21;;;;;;;6.70;3.72;;;;;;;19.45;55.95;100718.47;5088480;28;20047;-38
2022/10/21 03:50:47;;;;;;;5.75;4.07;;;;;;;19.45;55.88;100706.91;5087627;28;20052;-38
2022/10/21 03:53:14;;;;;;;5.63;4.03;;;;;;;19.44;56.20;100705.22;5084809;28;20056;-38
2022/10/21 03:56:00;;;;;;;6.72;4.45;;;;;;;19.44;55.41;100706.06;5087384;28;20052;-38
2022/10/21 03:58:27;;;;;;;6.78;4.15;;;;;;;19.45;55.83;100701.50;5086842;28;20044;-38
2022/10/21 04:00:54;;;;;;;6.97;4.40;;;;;;;19.44;55.54;100697.16;5089097;28;20059;-38
2022/10/21 04:03:21;;;;;;;7.10;4.35;;;;;;;19.43;55.96;100690.09;5086365;28;20466;-38
2022/10/21 04:05:47;;;;;;;5.53;4.30;;;;;;;19.43;56.31;100682.03;5088874;28;20444;-38
2022/10/21 04:08:14;;;;;;;5.75;4.25;;;;;;;19.43;56.03;100679.34;5087250;28;20051;-38
2022/10/21 04:10:40;;;;;;;7.30;4.30;;;;;;;19.42;56.09;100678.53;5087654;28;20048;-38
2022/10/21 04:13:07;;;;;;;6.63;4.60;;;;;;;19.41;56.36;100679.50;5085829;28;20082;-38
2022/10/21 04:15:33;;;;;;;6.25;4.20;;;;;;;19.41;55.58;100684.03;5089449;28;20335;-38
2022/10/21 04:18:00;;;;;;;7.25;4.70;;;;;;;19.40;56.08;100688.59;5083948;28;20052;-38
2022/10/21 04:20:27;;;;;;;5.07;4.10;;;;;;;19.41;56.36;100692.09;5084263;28;20093;-38
2022/10/21 04:22:53;;;;;;;5.60;4.20;;;;;;;19.40;55.66;100693.97;5085302;28;20051;-38
2022/10/21 04:25:19;;;;;;;5.50;4.10;;;;;;;19.39;55.64;100696.81;5087190;28;20044;-38
2022/10/21 04:27:46;;;;;;;7.38;4.30;;;;;;;19.39;56.02;100705.72;5085588;28;20044;-38
2022/10/21 04:30:12;;;;;;;8.45;4.75;;;;;;;19.39;55.89;100707.56;5087792;28;20044;-37
2022/10/21 04:32:39;;;;;;;5.65;3.97;;;;;;;19.39;55.95;100702.19;5084143;28;20051;-37
2022/10/21 04:35:06;;;;;;;4.85;3.80;;;;;;;19.38;55.76;100703.22;5086110;28;20052;-38
2022/10/21 04:37:33;;;;;;;5.80;4.22;;;;;;;19.38;56.26;100705.91;5084855;28;20047;-38
2022/10/21 04:39:59;;;;;;;5.65;4.35;;;;;;;19.38;55.83;100697.84;5085263;28;20044;-37
2022/10/21 04:42:26;;;;;;;6.13;4.20;;;;;;;19.36;56.17;100699.84;5085338;28;20051;-37
2022/10/21 04:44:53;;;;;;;7.43;4.10;;;;;;;19.36;55.46;100702.53;5086701;28;20358;-37
2022/10/21 04:47:20;;;;;;;6.20;4.32;;;;;;;19.36;56.37;100707.91;5083035;28;20052;-38
2022/10/21 04:49:46;;;;;;;5.18;3.95;;;;;;;19.36;55.58;100707.91;5082717;28;20044;-37
2022/10/21 04:52:13;;;;;;;7.57;4.20;;;;;;;19.36;55.54;100702.53;5086790;28;20098;-37
2022/10/21 04:54:39;;;;;;;7.75;3.53;;;;;;;19.35;56.20;100700.84;5082757;28;20057;-37
2022/10/21 04:57:06;;;;;;;6.88;4.05;;;;;;;19.35;56.35;100700.84;5087034;28;20341;-37
2022/10/21 04:59:32;;;;;;;5.28;3.88;;;;;;;19.34;56.29;100699.19;5087085;28;20070;-37
2022/10/21 05:01:59;;;;;;;6.57;4.18;;;;;;;19.33;55.60;100698.31;5085219;28;20059;-37
2022/10/21 05:04:30;;;;;;;5.15;3.92;;;;;;;19.33;55.92;100695.63;5083300;28;20062;-37
2022/10/21 05:06:57;;;;;;;5.78;4.05;;;;;;;19.33;55.73;100694.78;5082904;28;20048;-38
2022/10/21 05:09:23;;;;;;;4.97;3.70;;;;;;;19.32;55.70;100702.00;5087573;28;20051;-37
2022/10/21 05:11:50;;;;;;;4.45;3.60;;;;;;;19.32;55.71;100718.13;5085479;28;20050;-43
2022/10/21 05:14:16;;;;;;;6.30;4.13;;;;;;;19.31;55.74;100721.00;5086794;28;20132;-38
2022/10/21 05:16:48;;;;;;;4.50;3.45;;;;;;;19.31;55.74;100718.31;5084143;28;20619;-38
2022/10/21 05:19:14;;;;;;;6.15;4.07;;;;;;;19.30;56.18;100714.78;5086062;28;20044;-37
2022/10/21 05:21:41;;;;;;;6.40;3.70;;;;;;;19.31;56.15;100716.47;5085997;28;20435;-38
2022/10/21 05:24:07;;;;;;;4.07;3.47;;;;;;;19.31;55.70;100718.31;5082676;28;20526;-38
2022/10/21 05:26:34;;;;;;;6.05;4.00;;;;;;;19.30;56.43;100719.31;5087379;28;20249;-38
2022/10/21 05:29:00;;;;;;;5.55;3.75;;;;;;;19.30;56.04;100712.09;5085415;28;20544;-38
2022/10/21 05:31:27;;;;;;;5.05;3.55;;;;;;;19.30;56.22;100711.25;5085480;28;20052;-38
2022/10/21 05:33:53;;;;;;;5.03;3.50;;;;;;;19.29;56.28;100704.19;5083285;28;20043;-38
2022/10/21 05:36:20;;;;;;;4.20;3.60;;;;;;;19.29;56.17;100709.56;5086243;28;20355;-38
2022/10/21 05:38:50;;;;;;;6.22;3.92;;;;;;;19.29;56.29;100701.50;5080593;28;20059;-38
2022/10/21 05:41:16;;;;;;;5.28;3.92;;;;;;;19.28;56.02;100703.34;5073253;28;20667;-38
2022/10/21 05:43:43;;;;;;;5.53;3.70;;;;;;;19.28;55.84;100699.81;5083744;28;20051;-38
2022/10/21 05:46:09;;;;;;;5.28;3.72;;;;;;;19.27;56.49;100699.00;5089086;28;20055;-38
2022/10/21 05:48:36;;;;;;;4.88;3.70;;;;;;;19.27;56.11;100701.66;5087461;28;20048;-38
2022/10/21 05:51:03;;;;;;;5.10;3.50;;;;;;;19.26;55.84;100697.31;5088098;28;20452;-38
2022/10/21 05:53:30;;;;;;;5.63;3.95;;;;;;;19.27;56.31;100693.63;5084996;28;20048;-38
2022/10/21 05:56:05;;;;;;;4.30;3.15;;;;;;;19.25;55.97;100687.53;5084573;28;20048;-38
2022/10/21 05:58:33;;;;;;;4.90;3.72;;;;;;;19.26;56.27;100685.69;5082784;28;20055;-38
2022/10/21 06:01:00;;;;;;;4.63;3.55;;;;;;;19.27;56.21;100692.78;5089888;28;20903;-38
2022/10/21 06:03:28;;;;;;;5.85;3.40;;;;;;;19.26;56.05;100694.63;5084169;28;20931;-38
2022/10/21 06:06:00;;;;;;;4.72;3.30;;;;;;;19.25;55.90;100695.59;5089723;28;20561;-38
2022/10/21 06:08:28;;;;;;;4.13;3.20;;;;;;;19.25;56.16;100690.22;5087765;28;20044;-38
2022/10/21 06:11:09;;;;;;;4.43;3.25;;;;;;;19.23;55.75;100685.03;5086340;28;20427;-38
2022/10/21 06:13:36;;;;;;;4.55;3.40;;;;;;;19.23;56.29;100682.34;5089170;28;20454;-38
2022/10/21 06:16:04;;;;;;;4.90;3.40;;;;;;;19.24;55.87;100677.81;5087541;28;20054;-38
2022/10/21 06:18:36;;;;;;;5.43;3.30;;;;;;;19.23;55.86;100685.03;5087594;28;20047;-38
2022/10/21 06:21:03;;;;;;;4.97;3.50;;;;;;;19.23;55.89;100678.81;5088952;28;20055;-38
2022/10/21 06:23:30;;;;;;;4.55;3.30;;;;;;;19.22;55.68;100686.06;5084646;28;20486;-38
2022/10/21 06:26:05;;;;;;;5.40;3.30;;;;;;;19.23;56.36;100686.88;5088015;28;20044;-38
2022/10/21 06:28:33;;;;;;;4.55;3.33;;;;;;;19.21;56.15;100678.97;5084576;28;20044;-37
2022/10/21 06:30:59;;;;;;;5.18;3.35;;;;;;;19.21;56.02;100681.66;5084200;28;20040;-37
2022/10/21 06:33:26;;;;;;;3.88;3.30;;;;;;;19.22;55.64;100679.84;5084405;28;20040;-37
2022/10/21 06:35:54;;;;;;;4.18;3.30;;;;;;;19.20;56.33;100688.03;5088676;28;20044;-37
2022/10/21 06:38:21;;;;;;;5.38;3.15;;;;;;;19.21;56.49;100689.72;5086408;28;20056;-38
2022/10/21 06:40:48;;;;;;;4.50;3.13;;;;;;;19.21;56.18;100689.72;5085497;28;20048;-37
2022/10/21 06:43:14;;;;;;;4.38;3.15;;;;;;;19.21;56.00;100691.56;5088671;28;21184;-39
2022/10/21 06:45:41;;;;;;;4.50;2.90;;;;;;;19.22;56.27;100690.59;5088279;28;20059;-38
2022/10/21 06:48:08;;;;;;;5.47;3.35;;;;;;;19.21;56.08;100695.09;5083997;28;20113;-37
2022/10/21 06:50:36;;;;;;;3.90;3.20;;;;;;;19.21;56.00;100700.47;5090920;28;20055;-37
2022/10/21 06:53:03;;;;;;;4.68;2.95;;;;;;;19.21;56.24;100694.25;5083065;28;20344;-39
2022/10/21 06:55:29;;;;;;;4.47;3.25;;;;;;;19.21;55.52;100705.00;5084105;28;20040;-38
2022/10/21 06:57:57;;;;;;;3.22;2.70;;;;;;;19.20;55.86;100709.53;5082496;28;20041;-38
2022/10/21 07:00:23;;;;;;;4.13;3.00;;;;;;;19.21;55.97;100702.31;5083641;28;20048;-38
2022/10/21 07:02:50;;;;;;;4.88;3.35;;;;;;;19.21;55.69;100700.47;5084727;28;20044;-38
2022/10/21 07:05:17;;;;;;;4.55;3.33;;;;;;;19.22;55.64;100694.13;5082640;28;20048;-38
2022/10/21 07:07:43;;;;;;;4.45;2.97;;;;;;;19.21;56.18;100688.88;5079242;28;20064;-38
2022/10/21 07:10:10;;;;;;;5.47;3.30;;;;;;;19.22;55.99;100685.22;5082353;28;20059;-39
2022/10/21 07:12:37;;;;;;;3.92;2.92;;;;;;;19.22;55.72;100690.59;5082982;28;20344;-39
2022/10/21 07:15:04;;;;;;;8.80;4.25;;;;;;;19.22;55.99;100687.91;5083330;28;20059;-39
2022/10/21 07:17:30;;;;;;;4.38;3.00;;;;;;;19.21;55.50;100692.41;5085279;28;20048;-36
2022/10/21 07:19:57;;;;;;;4.57;3.10;;;;;;;19.21;56.27;100688.88;5086522;28;20045;-38
2022/10/21 07:22:23;;;;;;;3.65;3.05;;;;;;;19.22;55.69;100701.34;5087860;28;20044;-39
2022/10/21 07:24:50;;;;;;;4.47;3.10;;;;;;;19.21;55.53;100697.78;5084548;28;20055;-38
2022/10/21 07:27:16;;;;;;;4.38;2.90;;;;;;;19.23;56.06;100703.00;5086071;28;20487;-38
2022/10/21 07:29:43;;;;;;;6.05;3.42;;;;;;;19.22;55.54;100710.22;5086879;28;20044;-38
2022/10/21 07:32:09;;;;;;;4.85;3.45;;;;;;;19.23;55.91;100716.44;5088159;28;20072;-38
2022/10/21 07:34:36;;;;;;;5.10;3.20;;;;;;;19.23;55.97;100717.28;5089042;28;20077;-38
2022/10/21 07:37:02;;;;;;;4.05;2.80;;;;;;;19.23;55.96;100719.97;5084731;28;20059;-38
2022/10/21 07:39:29;;;;;;;4.57;3.13;;;;;;;19.23;55.84;100719.13;5084077;28;20404;-38
2022/10/21 07:41:56;;;;;;;6.53;3.13;;;;;;;19.23;55.67;100725.34;5082819;28;20051;-38
2022/10/21 07:44:24;;;;;;;4.05;3.20;;;;;;;19.25;55.99;100727.84;5083804;28;20186;-38
2022/10/21 07:46:52;;;;;;;3.97;3.00;;;;;;;19.24;55.63;100737.75;5083608;28;20076;-38
2022/10/21 07:49:20;;;;;;;3.40;2.75;;;;;;;19.24;56.01;100743.13;5088430;28;20093;-38
2022/10/21 07:51:49;;;;;;;4.10;2.97;;;;;;;19.24;55.64;100751.19;5081864;28;20048;-38
2022/10/21 07:54:16;;;;;;;4.43;2.85;;;;;;;19.25;55.92;100754.72;5079089;28;20053;-38
2022/10/21 07:56:46;;;;;;;5.20;2.70;;;;;;;19.25;55.45;100762.78;5083287;28;20317;-38
2022/10/21 07:59:15;;;;;;;3.25;2.63;;;;;;;19.27;55.65;100762.63;5085858;28;20052;-38
2022/10/21 08:01:43;;;;;;;4.80;3.00;;;;;;;19.27;56.02;100773.38;5084934;28;20383;-38
2022/10/21 08:04:13;;;;;;;4.80;2.55;;;;;;;19.27;56.10;100773.38;5083829;28;20095;-38
2022/10/21 08:06:39;;;;;;;4.32;2.80;;;;;;;19.26;55.54;100771.69;5085659;28;20135;-38
2022/10/21 08:09:06;;;;;;;4.15;2.63;;;;;;;19.26;55.35;100774.38;5085810;28;20060;-38
2022/10/21 08:11:33;;;;;;;4.88;3.28;;;;;;;19.26;55.91;100771.69;5085707;28;20048;-38
2022/10/21 08:14:00;;;;;;;4.63;3.42;;;;;;;19.26;55.72;100764.50;5084846;28;20072;-38
2022/10/21 08:16:26;;;;;;;4.05;2.90;;;;;;;19.25;55.93;100770.84;5083634;28;20052;-38
2022/10/21 08:18:54;;;;;;;5.10;3.00;;;;;;;19.27;55.93;100755.41;5086244;28;20040;-38
2022/10/21 08:21:21;;;;;;;4.85;2.90;;;;;;;19.25;55.87;100741.28;5087437;28;20048;-38
2022/10/21 08:23:47;;;;;;;4.97;3.05;;;;;;;19.27;55.12;100738.47;5082228;28;20266;-38
2022/10/21 08:26:14;;;;;;;3.83;2.65;;;;;;;19.27;55.99;100733.09;5084101;28;20048;-38
2022/10/21 08:28:41;;;;;;;5.07;3.20;;;;;;;19.28;55.70;100726.69;5082505;28;20055;-38
2022/10/21 08:31:14;;;;;;;3.22;2.50;;;;;;;19.27;55.79;100731.22;5086081;28;20048;-38
2022/10/21 08:33:40;;;;;;;4.90;2.72;;;;;;;19.27;55.58;100736.59;5083327;28;20052;-38
2022/10/21 08:36:19;;;;;;;3.72;2.70;;;;;;;19.26;55.57;100732.25;5082737;28;20056;-38
2022/10/21 08:38:46;;;;;;;3.85;2.60;;;;;;;19.27;55.54;100739.28;5086770;28;20052;-38
2022/10/21 08:41:24;;;;;;;4.45;2.55;;;;;;;19.27;55.42;100728.53;5081177;28;20036;-38
2022/10/21 08:43:53;;;;;;;5.38;2.78;;;;;;;19.29;55.62;100736.44;5086562;28;20131;-38
2022/10/21 08:46:25;;;;;;;3.00;2.20;;;;;;;19.29;55.53;100736.44;5085762;28;20048;-38
2022/10/21 08:49:00;;;;;;;3.28;2.70;;;;;;;19.29;55.80;100739.97;5083405;28;20095;-38
2022/10/21 08:51:37;;;;;;;3.92;2.65;;;;;;;19.29;55.67;100736.44;5085729;28;20060;-39
2022/10/21 08:54:17;;;;;;;4.53;2.50;;;;;;;19.29;55.87;100747.19;5080546;28;20052;-39
2022/10/21 08:56:47;;;;;;;3.75;2.55;;;;;;;19.31;55.58;100750.56;5080938;28;20420;-39
2022/10/21 08:59:21;;;;;;;5.13;3.03;;;;;;;19.30;55.90;100749.72;5082020;28;20040;-38
2022/10/21 09:02:12;;;;;;;3.50;2.70;;;;;;;19.32;55.67;100760.28;5085692;28;20355;-38
2022/10/21 09:04:53;;;;;;;5.63;2.80;;;;;;;19.32;55.59;100765.66;5080529;28;20063;-38
2022/10/21 09:07:31;;;;;;;4.95;2.75;;;;;;;19.32;55.50;100765.66;5087514;28;20055;-38
2022/10/21 09:10:14;;;;;;;4.15;2.60;;;;;;;19.33;55.93;100761.97;5078605;28;20071;-38
2022/10/21 09:12:47;;;;;;;4.28;2.85;;;;;;;19.35;56.20;100768.03;5083209;28;20056;-38
2022/10/21 09:15:58;;;;;;;5.35;2.88;;;;;;;19.33;55.89;100751.22;5082930;28;20040;-39
2022/10/21 09:18:43;;;;;;;3.20;2.38;;;;;;;19.35;55.60;100754.59;5082282;28;20109;-38
2022/10/21 09:21:21;;;;;;;3.10;2.30;;;;;;;19.35;56.05;100754.59;5085666;28;20051;-39
2022/10/21 09:23:57;;;;;;;4.40;2.65;;;;;;;19.36;55.80;100756.28;5079941;28;20099;-39
2022/10/21 09:26:36;;;;;;;6.40;2.83;;;;;;;19.36;55.25;100759.81;5083804;28;20101;-39
2022/10/21 09:29:24;;;;;;;3.90;2.75;;;;;;;19.35;55.66;100750.06;5081663;28;20057;-38
2022/10/21 09:31:51;;;;;;;5.30;2.28;;;;;;;19.37;55.56;100758.78;5066812;28;20048;-38
2022/10/21 09:34:45;;;;;;;5.25;2.63;;;;;;;19.37;55.67;100760.63;5082213;28;20083;-38
2022/10/21 09:37:25;;;;;;;4.35;2.30;;;;;;;19.37;55.95;100761.47;5083359;28;20428;-39
2022/10/21 09:40:13;;;;;;;4.00;2.22;;;;;;;19.37;56.08;100763.31;5085428;28;20051;-39
2022/10/21 09:42:40;;;;;;;2.97;2.25;;;;;;;19.40;55.27;100771.06;5082603;28;20055;-39
2022/10/21 09:45:38;;;;;;;2.70;2.30;;;;;;;19.38;55.34;100773.09;5080830;28;20443;-38
2022/10/21 09:48:17;;;;;;;2.58;1.90;;;;;;;19.40;55.33;100768.38;5075183;28;20130;-38
2022/10/21 09:51:05;;;;;;;3.60;1.90;;;;;;;19.39;55.83;100762.16;5081984;28;20044;-38
2022/10/21 09:53:43;;;;;;;3.47;2.55;;;;;;;19.40;55.33;100754.94;5081403;28;20047;-38
2022/10/21 09:56:23;;;;;;;2.90;2.40;;;;;;;19.41;55.46;100753.94;5087756;28;20060;-38
2022/10/21 09:59:08;;;;;;;3.53;2.20;;;;;;;19.40;55.45;100758.47;5083322;28;20056;-38
2022/10/21 10:01:36;;;;;;;2.88;2.10;;;;;;;19.43;55.34;100751.94;5078597;28;20047;-38
2022/10/21 10:04:12;;;;;;;2.85;2.13;;;;;;;19.43;55.69;100751.94;5084911;28;20371;-38
2022/10/21 10:06:40;;;;;;;3.40;2.05;;;;;;;19.44;55.96;100749.06;5081885;28;20059;-38
2022/10/21 10:09:16;;;;;;;3.03;1.95;;;;;;;19.44;55.88;100751.75;5081724;28;20457;-38
2022/10/21 10:11:49;;;;;;;2.60;2.10;;;;;;;19.45;56.06;100753.44;5082638;28;20048;-38
2022/10/21 10:14:25;;;;;;;2.70;2.25;;;;;;;19.45;56.03;100745.38;5081204;28;20120;-38
2022/10/21 10:16:52;;;;;;;3.08;2.30;;;;;;;19.47;56.19;100750.59;5085350;28;20079;-38
2022/10/21 10:19:26;;;;;;;3.40;2.10;;;;;;;19.47;55.94;100751.44;5080563;28;20068;-38
2022/10/21 10:22:13;;;;;;;4.25;2.03;;;;;;;19.48;55.65;100757.66;5080155;28;20040;-38
2022/10/21 10:24:42;;;;;;;4.60;2.25;;;;;;;19.50;56.14;100744.88;5079285;28;20342;-38
2022/10/21 10:27:15;;;;;;;2.78;2.10;;;;;;;19.52;56.13;100750.94;5082554;28;20060;-38
2022/10/21 10:29:51;;;;;;;7.25;2.58;;;;;;;19.54;55.77;100751.63;5085647;28;20052;-39
2022/10/21 10:32:21;;;;;;;4.15;2.42;;;;;;;19.55;55.61;100752.44;5087738;28;20062;-38
2022/10/21 10:34:51;;;;;;;4.93;3.03;;;;;;;19.56;55.41;100757.66;5087521;28;20052;-38
2022/10/21 10:37:21;;;;;;;3.20;2.42;;;;;;;19.56;55.50;100763.03;5089076;28;21457;-38
2022/10/21 10:39:51;;;;;;;4.63;2.78;;;;;;;19.59;55.81;100762.72;5083434;28;20048;-38
2022/10/21 10:42:20;;;;;;;4.93;2.72;;;;;;;19.61;55.75;100762.53;5085347;28;20052;-38
2022/10/21 10:44:51;;;;;;;2.30;1.85;;;;;;;19.62;55.49;100761.56;5088543;28;20066;-38
2022/10/21 10:47:25;;;;;;;2.67;2.10;;;;;;;19.63;56.01;100763.25;5083294;28;20048;-38
2022/10/21 10:49:51;;;;;;;4.82;2.10;;;;;;;19.65;55.85;100759.38;5082262;28;20074;-38
2022/10/21 10:52:22;;;;;;;4.20;1.95;;;;;;;19.66;55.88;100766.44;5084202;28;20063;-38
2022/10/21 10:55:11;;;;;;;4.40;2.13;;;;;;;19.65;55.57;100762.06;5084909;28;20040;-38
2022/10/21 10:57:40;;;;;;;2.95;2.40;;;;;;;19.68;56.10;100755.53;5085196;28;20043;-38
2022/10/21 11:00:23;;;;;;;4.43;2.20;;;;;;;19.68;55.29;100753.66;5083794;28;20072;-38
2022/10/21 11:03:02;;;;;;;4.07;2.65;;;;;;;19.69;56.28;100751.81;5086942;28;20071;-38
2022/10/21 11:05:43;;;;;;;3.95;1.98;;;;;;;19.70;55.76;100754.34;5085969;28;20044;-38
2022/10/21 11:08:27;;;;;;;4.97;2.53;;;;;;;19.72;55.73;100760.38;5086486;28;20052;-38
2022/10/21 11:11:02;;;;;;;3.65;2.10;;;;;;;19.77;55.75;100761.75;5088531;28;20041;-38
2022/10/21 11:13:32;;;;;;;3.05;1.90;;;;;;;19.77;55.55;100761.75;5084649;28;20044;-38
2022/10/21 11:16:38;;;;;;;3.08;2.05;;;;;;;19.78;55.37;100772.34;5086359;28;20051;-38
2022/10/21 11:19:50;;;;;;;2.95;1.77;;;;;;;19.81;55.59;100763.94;5081351;28;20347;-38
2022/10/21 11:22:32;;;;;;;2.80;2.10;;;;;;;19.83;55.14;100764.63;5083378;28;20044;-38
2022/10/21 11:25:08;;;;;;;4.05;2.25;;;;;;;19.85;55.72;100767.13;5083679;28;20055;-38
2022/10/21 11:27:52;;;;;;;4.15;2.05;;;;;;;19.87;56.17;100765.97;5086996;28;20044;-38
2022/10/21 11:30:22;;;;;;;4.90;2.05;;;;;;;19.88;55.81;100767.63;5086247;28;20048;-38
2022/10/21 11:33:01;;;;;;;3.80;2.30;;;;;;;19.89;56.22;100752.31;5082346;28;20048;-38
2022/10/21 11:36:07;;;;;;;3.00;2.17;;;;;;;19.89;55.67;100755.84;5085271;28;20085;-38
2022/10/21 11:38:50;;;;;;;3.03;1.98;;;;;;;19.92;55.24;100758.22;5086004;28;20374;-38
2022/10/21 11:41:30;;;;;;;2.50;1.77;;;;;;;19.93;55.72;100743.75;5084693;28;20044;-38
2022/10/21 11:44:27;;;;;;;3.92;1.85;;;;;;;19.96;55.16;100745.28;5090474;28;20047;-38